createdAt,value
2022-08-07T00:01:44.540Z,7.03
2022-08-07T00:04:05.383Z,9.05
2022-08-07T00:06:33.873Z,6.80
2022-08-07T00:09:16.799Z,10.48
2022-08-07T00:11:54.078Z,6.90
2022-08-07T00:14:30.594Z,8.02
2022-08-07T00:16:59.768Z,9.13
2022-08-07T00:19:59.873Z,11.03
2022-08-07T00:22:24.718Z,8.18
2022-08-07T00:25:16.735Z,9.70
2022-08-07T00:27:52.580Z,10.50
2022-08-07T00:30:27.798Z,8.60
2022-08-07T00:32:59.410Z,7.57
2022-08-07T00:35:26.817Z,9.10
2022-08-07T00:37:56.815Z,9.20
2022-08-07T00:40:36.216Z,8.95
2022-08-07T00:43:09.658Z,8.73
2022-08-07T00:45:39.030Z,10.93
2022-08-07T00:48:09.181Z,9.30
2022-08-07T00:50:50.260Z,9.02
2022-08-07T00:53:20.271Z,8.20
2022-08-07T00:56:00.409Z,8.25
2022-08-07T00:58:30.673Z,7.20
2022-08-07T01:00:58.800Z,7.40
2022-08-07T01:03:56.380Z,8.02
2022-08-07T01:06:12.927Z,8.30
2022-08-07T01:08:46.524Z,7.13
2022-08-07T01:12:11.064Z,7.60
2022-08-07T01:14:07.827Z,7.53
2022-08-07T01:16:39.439Z,8.10
2022-08-07T01:19:14.778Z,11.15
2022-08-07T01:21:46.110Z,7.35
2022-08-07T01:24:13.570Z,7.47
2022-08-07T01:26:40.483Z,10.88
2022-08-07T01:29:07.407Z,8.07
2022-08-07T01:31:42.436Z,8.68
2022-08-07T01:34:09.766Z,9.77
2022-08-07T01:36:40.671Z,7.13
2022-08-07T01:39:10.098Z,7.15
2022-08-07T01:41:40.727Z,9.02
2022-08-07T01:44:22.088Z,10.50
2022-08-07T01:46:50.465Z,8.55
2022-08-07T01:49:17.352Z,7.83
2022-08-07T01:52:01.522Z,10.18
2022-08-07T01:54:33.299Z,8.70
2022-08-07T01:57:25.169Z,8.88
2022-08-07T01:59:57.566Z,8.73
2022-08-07T02:03:12.059Z,8.20
2022-08-07T02:05:43.344Z,8.98
2022-08-07T02:08:13.901Z,8.80
2022-08-07T02:10:42.229Z,8.60
2022-08-07T02:13:09.459Z,10.90
2022-08-07T02:15:36.687Z,7.70
2022-08-07T02:18:04.167Z,9.43
2022-08-07T02:20:36.705Z,7.25
2022-08-07T02:23:05.847Z,8.60
2022-08-07T02:26:31.473Z,11.95
2022-08-07T02:28:25.424Z,9.53
2022-08-07T02:30:54.429Z,8.00
2022-08-07T02:33:21.448Z,10.05
2022-08-07T02:36:29.408Z,10.27
2022-08-07T02:38:37.307Z,7.45
2022-08-07T02:41:04.508Z,9.17
2022-08-07T02:43:31.490Z,11.80
2022-08-07T02:46:01.869Z,9.93
2022-08-07T02:48:30.471Z,10.18
2022-08-07T02:50:57.930Z,11.25
2022-08-07T02:53:29.217Z,8.60
2022-08-07T02:56:03.056Z,8.20
2022-08-07T02:58:33.379Z,7.45
2022-08-07T03:01:00.752Z,7.88
2022-08-07T03:03:29.618Z,8.20
2022-08-07T03:06:25.950Z,8.43
2022-08-07T03:09:01.027Z,9.25
2022-08-07T03:11:28.227Z,10.38
2022-08-07T03:13:57.534Z,7.38
2022-08-07T03:16:28.989Z,8.00
2022-08-07T03:18:58.450Z,10.43
2022-08-07T03:21:25.689Z,7.97
2022-08-07T03:24:20.499Z,8.00
2022-08-07T03:26:51.002Z,9.50
2022-08-07T03:29:24.636Z,7.80
2022-08-07T03:31:54.527Z,7.97
2022-08-07T03:34:22.981Z,7.40
2022-08-07T03:36:54.694Z,8.00
2022-08-07T03:39:46.190Z,7.07
2022-08-07T03:42:08.480Z,7.15
2022-08-07T03:44:36.451Z,8.60
2022-08-07T03:47:13.345Z,7.13
2022-08-07T03:49:47.818Z,6.63
2022-08-07T03:52:26.583Z,7.22
2022-08-07T03:55:06.858Z,9.82
2022-08-07T03:58:34.731Z,7.50
2022-08-07T04:00:29.194Z,7.63
2022-08-07T04:02:59.636Z,6.47
2022-08-07T04:05:40.375Z,7.18
2022-08-07T04:08:11.035Z,7.47
2022-08-07T04:10:39.021Z,7.67
2022-08-07T04:13:15.276Z,7.13
2022-08-07T04:15:42.808Z,6.55
2022-08-07T04:18:57.825Z,6.65
2022-08-07T04:21:00.075Z,5.55
2022-08-07T04:23:43.399Z,9.00
2022-08-07T04:26:16.974Z,6.65
2022-08-07T04:28:49.051Z,7.53
2022-08-07T04:31:20.109Z,7.53
2022-08-07T04:33:47.348Z,8.95
2022-08-07T04:36:26.036Z,7.90
2022-08-07T04:38:53.325Z,5.03
2022-08-07T04:41:20.809Z,6.50
2022-08-07T04:44:12.022Z,7.38
2022-08-07T04:47:04.704Z,5.80
2022-08-07T04:49:57.916Z,6.40
2022-08-07T04:53:08.247Z,5.78
2022-08-07T04:58:16.823Z,7.68
2022-08-07T05:02:01.412Z,5.15
2022-08-07T05:04:30.890Z,6.50
2022-08-07T05:07:20.266Z,5.85
2022-08-07T05:10:14.269Z,6.13
2022-08-07T05:12:51.548Z,5.50
2022-08-07T05:15:24.968Z,8.23
2022-08-07T05:17:55.733Z,4.97
2022-08-07T05:20:42.911Z,5.30
2022-08-07T05:23:42.654Z,5.72
2022-08-07T05:26:18.807Z,6.78
2022-08-07T05:28:53.749Z,6.13
2022-08-07T05:31:23.982Z,5.40
2022-08-07T05:34:05.509Z,6.53
2022-08-07T05:36:39.103Z,6.05
2022-08-07T05:39:09.134Z,6.05
2022-08-07T05:42:00.616Z,6.18
2022-08-07T05:44:31.030Z,5.90
2022-08-07T05:46:58.127Z,4.85
2022-08-07T05:49:28.025Z,6.50
2022-08-07T05:52:08.528Z,5.57
2022-08-07T05:54:44.486Z,7.15
2022-08-07T05:57:22.510Z,12.83
2022-08-07T05:59:56.112Z,6.50
2022-08-07T06:02:28.595Z,7.45
2022-08-07T06:04:58.190Z,7.53
2022-08-07T06:08:13.109Z,7.85
2022-08-07T06:10:15.279Z,5.17
2022-08-07T06:12:42.448Z,5.47
2022-08-07T06:15:10.067Z,5.22
2022-08-07T06:17:53.714Z,4.60
2022-08-07T06:20:49.485Z,4.45
2022-08-07T06:23:46.003Z,3.90
2022-08-07T06:25:59.592Z,3.95
2022-08-07T06:28:28.444Z,4.82
2022-08-07T06:30:55.931Z,6.45
2022-08-07T06:33:22.952Z,5.72
2022-08-07T06:36:11.956Z,5.77
2022-08-07T06:38:36.770Z,5.20
2022-08-07T06:41:09.810Z,4.85
2022-08-07T06:43:46.101Z,7.65
2022-08-07T06:46:14.386Z,6.50
2022-08-07T06:48:44.421Z,3.77
2022-08-07T06:51:15.992Z,4.68
2022-08-07T06:55:28.605Z,5.10
2022-08-07T06:56:50.887Z,5.43
2022-08-07T07:00:14.489Z,6.05
2022-08-07T07:02:09.456Z,12.03
2022-08-07T07:04:38.362Z,5.22
2022-08-07T07:07:19.469Z,4.55
2022-08-07T07:09:57.530Z,4.32
2022-08-07T07:12:48.677Z,6.85
2022-08-07T07:15:24.027Z,5.27
2022-08-07T07:18:11.469Z,3.17
2022-08-07T07:20:40.227Z,5.15
2022-08-07T07:24:08.227Z,3.75
2022-08-07T07:26:32.813Z,4.75
2022-08-07T07:29:39.501Z,8.37
2022-08-07T07:31:47.363Z,4.78
2022-08-07T07:34:19.008Z,6.57
2022-08-07T07:36:47.967Z,4.25
2022-08-07T07:39:20.102Z,4.25
2022-08-07T07:42:02.058Z,3.80
2022-08-07T07:44:39.867Z,5.32
2022-08-07T07:47:14.247Z,4.50
2022-08-07T07:50:35.901Z,3.92
2022-08-07T07:52:37.008Z,3.25
2022-08-07T07:55:04.466Z,3.20
2022-08-07T07:57:52.104Z,3.42
2022-08-07T08:00:29.136Z,4.00
2022-08-07T08:03:04.817Z,4.40
2022-08-07T08:05:51.017Z,3.70
2022-08-07T08:08:36.347Z,3.30
2022-08-07T08:11:13.640Z,2.88
2022-08-07T08:13:52.885Z,2.75
2022-08-07T08:16:25.270Z,4.35
2022-08-07T08:18:52.870Z,4.80
2022-08-07T08:22:00.735Z,4.43
2022-08-07T08:24:45.849Z,4.40
2022-08-07T08:27:16.604Z,4.70
2022-08-07T08:29:54.547Z,2.75
2022-08-07T08:32:25.613Z,5.70
2022-08-07T08:35:07.657Z,3.30
2022-08-07T08:38:00.605Z,4.75
2022-08-07T08:40:32.190Z,3.40
2022-08-07T08:43:15.931Z,5.93
2022-08-07T08:46:00.546Z,3.72
2022-08-07T08:48:38.478Z,3.97
2022-08-07T08:52:01.109Z,4.03
2022-08-07T08:54:25.776Z,4.82
2022-08-07T08:56:53.767Z,2.90
2022-08-07T08:59:42.034Z,5.72
2022-08-07T09:02:40.424Z,5.13
2022-08-07T09:05:36.951Z,3.47
2022-08-07T09:08:29.754Z,3.05
2022-08-07T09:11:08.292Z,7.43
2022-08-07T09:14:13.130Z,3.28
2022-08-07T09:17:07.932Z,4.70
2022-08-07T09:20:35.228Z,4.38
2022-08-07T09:24:33.795Z,6.85
2022-08-07T09:25:58.811Z,10.88
2022-08-07T09:30:03.128Z,5.30
2022-08-07T09:31:38.448Z,4.63
2022-08-07T09:34:15.954Z,3.60
2022-08-07T09:37:03.857Z,4.18
2022-08-07T09:39:59.806Z,4.60
2022-08-07T09:42:50.368Z,5.18
2022-08-07T09:47:51.887Z,5.70
2022-08-07T09:48:30.076Z,3.15
2022-08-07T09:52:09.745Z,3.17
2022-08-07T09:54:04.021Z,2.80
2022-08-07T09:56:50.156Z,2.80
2022-08-07T09:59:46.248Z,6.83
2022-08-07T10:02:55.020Z,8.93
2022-08-07T10:06:01.214Z,4.13
2022-08-07T10:08:41.667Z,2.75
2022-08-07T10:12:02.505Z,5.63
2022-08-07T10:14:32.381Z,5.73
2022-08-07T10:17:17.830Z,5.53
2022-08-07T10:20:01.535Z,3.53
2022-08-07T10:23:07.614Z,4.55
2022-08-07T10:25:53.222Z,4.45
2022-08-07T10:28:55.111Z,3.47
2022-08-07T10:31:21.963Z,5.13
2022-08-07T10:34:31.804Z,6.05
2022-08-07T10:37:17.887Z,6.30
2022-08-07T10:40:05.516Z,4.32
2022-08-07T10:42:43.338Z,2.77
2022-08-07T10:45:45.349Z,2.42
2022-08-07T10:48:34.749Z,4.07
2022-08-07T10:51:16.297Z,4.20
2022-08-07T10:54:00.241Z,6.80
2022-08-07T10:56:33.210Z,4.20
2022-08-07T10:59:24.604Z,3.30
2022-08-07T11:02:33.116Z,9.45
2022-08-07T11:05:19.449Z,3.90
2022-08-07T11:08:02.583Z,10.75
2022-08-07T11:10:32.292Z,3.33
2022-08-07T11:14:42.291Z,7.00
2022-08-07T11:16:41.109Z,6.85
2022-08-07T11:19:29.751Z,7.35
2022-08-07T11:22:26.642Z,4.63
2022-08-07T11:25:11.587Z,4.33
2022-08-07T11:28:04.373Z,4.70
2022-08-07T11:30:55.951Z,7.85
2022-08-07T11:33:59.580Z,5.80
2022-08-07T11:37:00.363Z,4.88
2022-08-07T11:39:59.993Z,5.93
2022-08-07T11:42:49.965Z,8.43
2022-08-07T11:45:35.303Z,6.38
2022-08-07T11:48:29.740Z,5.63
2022-08-07T11:51:44.476Z,3.78
2022-08-07T11:54:37.108Z,3.60
2022-08-07T11:58:00.226Z,3.65
2022-08-07T12:00:39.092Z,5.30
2022-08-07T12:03:46.383Z,4.68
2022-08-07T12:06:39.086Z,5.05
2022-08-07T12:09:23.638Z,4.70
2022-08-07T12:12:12.077Z,4.72
2022-08-07T12:15:17.010Z,5.78
2022-08-07T12:18:29.628Z,6.68
2022-08-07T12:22:36.250Z,4.97
2022-08-07T12:24:38.574Z,4.83
2022-08-07T12:27:14.870Z,2.72
2022-08-07T12:29:57.686Z,5.20
2022-08-07T12:32:30.826Z,5.82
2022-08-07T12:34:58.355Z,2.90
2022-08-07T12:37:28.425Z,2.77
2022-08-07T12:40:36.158Z,2.30
2022-08-07T12:43:01.946Z,4.60
2022-08-07T12:45:55.295Z,5.13
2022-08-07T12:48:55.202Z,4.25
2022-08-07T12:51:46.622Z,3.07
2022-08-07T12:54:37.441Z,3.85
2022-08-07T12:57:09.797Z,4.68
2022-08-07T12:59:54.235Z,4.45
2022-08-07T13:02:49.417Z,3.83
2022-08-07T13:06:02.519Z,4.40
2022-08-07T13:08:24.849Z,4.47
2022-08-07T13:11:14.235Z,4.55
2022-08-07T13:14:20.407Z,3.20
2022-08-07T13:17:21.324Z,3.15
2022-08-07T13:19:52.813Z,3.87
2022-08-07T13:22:58.510Z,4.53
2022-08-07T13:25:54.162Z,5.55
2022-08-07T13:28:38.297Z,3.67
2022-08-07T13:31:13.109Z,4.75
2022-08-07T13:34:34.509Z,4.43
2022-08-07T13:36:58.007Z,5.25
2022-08-07T13:40:33.543Z,4.70
2022-08-07T13:42:27.089Z,6.07
2022-08-07T13:44:55.312Z,4.43
2022-08-07T13:48:06.411Z,4.67
2022-08-07T13:50:34.004Z,4.65
2022-08-07T13:53:14.536Z,7.80
2022-08-07T13:55:54.411Z,4.10
2022-08-07T13:58:41.968Z,3.03
2022-08-07T14:01:23.174Z,3.77
2022-08-07T14:04:09.595Z,3.28
2022-08-07T14:06:39.530Z,4.00
2022-08-07T14:09:07.467Z,4.43
2022-08-07T14:11:53.458Z,3.63
2022-08-07T14:14:49.058Z,4.30
2022-08-07T14:18:12.196Z,4.50
2022-08-07T14:20:43.262Z,3.60
2022-08-07T14:23:31.741Z,5.47
2022-08-07T14:26:08.442Z,4.30
2022-08-07T14:28:57.454Z,3.23
2022-08-07T14:31:24.168Z,5.80
2022-08-07T14:33:52.748Z,4.07
2022-08-07T14:36:20.993Z,3.40
2022-08-07T14:38:51.447Z,2.15
2022-08-07T14:41:33.872Z,4.67
2022-08-07T14:44:16.299Z,3.10
2022-08-07T14:46:51.898Z,4.05
2022-08-07T14:49:57.582Z,3.85
2022-08-07T14:52:24.496Z,3.58
2022-08-07T14:54:54.846Z,3.83
2022-08-07T14:57:21.989Z,4.75
2022-08-07T15:00:06.220Z,4.57
2022-08-07T15:02:35.136Z,3.65
2022-08-07T15:05:04.431Z,3.85
2022-08-07T15:07:50.893Z,6.50
2022-08-07T15:10:20.290Z,4.80
2022-08-07T15:12:58.191Z,5.35
2022-08-07T15:15:38.585Z,3.55
2022-08-07T15:18:28.240Z,2.97
2022-08-07T15:20:59.350Z,6.73
2022-08-07T15:25:13.965Z,4.68
2022-08-07T15:26:22.499Z,4.68
2022-08-07T15:32:00.619Z,3.30
2022-08-07T15:38:04.297Z,5.20
2022-08-07T15:40:36.867Z,3.28
2022-08-07T15:43:53.605Z,4.55
2022-08-07T15:49:14.454Z,4.20
2022-08-07T15:54:34.215Z,3.72
2022-08-07T15:57:02.318Z,3.70
2022-08-07T15:59:40.053Z,7.00
2022-08-07T16:02:15.208Z,8.77
2022-08-07T16:04:42.588Z,6.55
2022-08-07T16:08:30.536Z,7.03
2022-08-07T16:10:16.369Z,3.80
2022-08-07T16:13:04.868Z,3.58
2022-08-07T16:16:03.495Z,3.80
2022-08-07T16:18:49.427Z,6.75
2022-08-07T16:21:56.757Z,6.15
2022-08-07T16:24:33.615Z,3.80
2022-08-07T16:27:25.229Z,5.28
2022-08-07T16:30:30.248Z,6.10
2022-08-07T16:34:02.073Z,7.20
2022-08-07T16:36:04.527Z,3.60
2022-08-07T16:39:01.025Z,5.53
2022-08-07T16:42:06.892Z,4.25
2022-08-07T16:45:24.674Z,12.43
2022-08-07T16:48:13.568Z,23.55
2022-08-07T16:51:20.730Z,43.88
2022-08-07T16:54:06.233Z,7.80
2022-08-07T16:56:54.827Z,5.88
2022-08-07T16:59:47.158Z,3.70
2022-08-07T17:02:53.065Z,4.32
2022-08-07T17:06:28.440Z,5.65
2022-08-07T17:08:09.493Z,4.20
2022-08-07T17:10:54.581Z,4.72
2022-08-07T17:14:19.418Z,3.63
2022-08-07T17:16:43.676Z,4.35
2022-08-07T17:20:01.131Z,5.10
2022-08-07T17:22:17.346Z,3.42
2022-08-07T17:25:16.771Z,3.88
2022-08-07T17:27:57.451Z,5.43
2022-08-07T17:30:58.540Z,4.15
2022-08-07T17:34:10.082Z,3.35
2022-08-07T17:36:26.161Z,3.95
2022-08-07T17:39:15.458Z,5.07
2022-08-07T17:42:02.409Z,3.00
2022-08-07T17:44:45.555Z,4.20
2022-08-07T17:47:42.765Z,2.90
2022-08-07T17:50:22.772Z,4.32
2022-08-07T17:53:00.626Z,5.97
2022-08-07T17:55:55.972Z,4.37
2022-08-07T17:59:00.792Z,6.35
2022-08-07T18:01:39.884Z,5.70
2022-08-07T18:04:41.896Z,4.13
2022-08-07T18:07:24.114Z,4.53
2022-08-07T18:10:06.691Z,5.43
2022-08-07T18:13:11.708Z,4.00
2022-08-07T18:16:04.815Z,4.68
2022-08-07T18:21:01.157Z,3.08
2022-08-07T18:22:03.582Z,3.33
2022-08-07T18:24:52.597Z,3.83
2022-08-07T18:27:41.186Z,5.22
2022-08-07T18:30:32.478Z,7.95
2022-08-07T18:33:33.987Z,6.85
2022-08-07T18:36:32.697Z,6.20
2022-08-07T18:40:08.173Z,7.73
2022-08-07T18:42:21.678Z,5.38
2022-08-07T18:45:43.179Z,6.13
2022-08-07T18:48:09.028Z,5.82
2022-08-07T18:50:47.300Z,7.10
2022-08-07T18:53:45.369Z,6.30
2022-08-07T18:56:57.965Z,7.47
2022-08-07T19:00:34.633Z,4.85
2022-08-07T19:03:11.981Z,6.68
2022-08-07T19:06:05.182Z,8.48
2022-08-07T19:08:46.377Z,5.37
2022-08-07T19:11:35.903Z,7.55
2022-08-07T19:14:19.854Z,8.57
2022-08-07T19:17:05.809Z,5.68
2022-08-07T19:19:45.430Z,7.82
2022-08-07T19:22:30.765Z,7.60
2022-08-07T19:24:58.950Z,7.15
2022-08-07T19:28:57.903Z,6.75
2022-08-07T19:31:05.750Z,7.20
2022-08-07T19:33:10.263Z,8.27
2022-08-07T19:35:40.577Z,7.37
2022-08-07T19:38:16.074Z,9.40
2022-08-07T19:40:49.981Z,9.38
2022-08-07T19:43:48.860Z,8.90
2022-08-07T19:46:10.929Z,9.40
2022-08-07T19:48:42.242Z,7.27
2022-08-07T19:51:20.396Z,9.43
2022-08-07T19:54:31.810Z,7.75
2022-08-07T19:57:52.259Z,8.93
2022-08-07T19:59:40.792Z,10.32
2022-08-07T20:02:19.073Z,10.97
2022-08-07T20:04:49.273Z,10.90
2022-08-07T20:07:23.750Z,11.98
2022-08-07T20:10:33.444Z,11.38
2022-08-07T20:12:50.951Z,10.13
2022-08-07T20:15:22.158Z,8.73
2022-08-07T20:18:01.785Z,10.23
2022-08-07T20:20:30.718Z,11.38
2022-08-07T20:23:00.544Z,9.02
2022-08-07T20:25:28.269Z,10.55
2022-08-07T20:27:58.477Z,10.17
2022-08-07T20:30:31.002Z,9.55
2022-08-07T20:32:58.008Z,9.38
2022-08-07T20:35:51.988Z,10.52
2022-08-07T20:38:25.787Z,8.75
2022-08-07T20:40:56.456Z,9.30
2022-08-07T20:43:26.776Z,10.80
2022-08-07T20:46:28.566Z,10.40
2022-08-07T20:48:58.043Z,9.90
2022-08-07T20:51:29.971Z,8.48
2022-08-07T20:54:03.609Z,9.17
2022-08-07T20:56:41.259Z,7.75
2022-08-07T21:00:05.344Z,10.40
2022-08-07T21:02:01.764Z,8.57
2022-08-07T21:04:30.549Z,10.60
2022-08-07T21:07:04.491Z,9.17
2022-08-07T21:09:53.034Z,10.30
2022-08-07T21:12:31.078Z,10.20
2022-08-07T21:15:00.931Z,10.77
2022-08-07T21:18:03.514Z,11.18
2022-08-07T21:20:18.947Z,11.30
2022-08-07T21:22:57.189Z,12.20
2022-08-07T21:25:39.180Z,11.80
2022-08-07T21:28:19.144Z,11.50
2022-08-07T21:31:14.431Z,10.35
2022-08-07T21:33:48.928Z,14.90
2022-08-07T21:36:40.086Z,9.75
2022-08-07T21:39:44.899Z,11.25
2022-08-07T21:42:42.964Z,11.13
2022-08-07T21:46:05.062Z,11.23
2022-08-07T21:48:48.220Z,12.03
2022-08-07T21:51:32.235Z,13.13
2022-08-07T21:54:14.491Z,9.52
2022-08-07T21:57:15.953Z,11.43
2022-08-07T22:00:11.329Z,13.77
2022-08-07T22:03:08.618Z,10.33
2022-08-07T22:05:55.410Z,12.15
2022-08-07T22:08:24.814Z,10.93
2022-08-07T22:11:00.175Z,11.20
2022-08-07T22:13:50.272Z,11.68
2022-08-07T22:16:42.109Z,9.67
2022-08-07T22:19:07.552Z,12.95
2022-08-07T22:22:04.717Z,12.50
2022-08-07T22:24:37.991Z,11.27
2022-08-07T22:27:20.988Z,13.32
2022-08-07T22:30:26.488Z,11.03
2022-08-07T22:33:07.308Z,10.82
2022-08-07T22:35:46.347Z,12.70
2022-08-07T22:38:50.888Z,13.07
2022-08-07T22:42:04.023Z,11.50
2022-08-07T22:44:32.717Z,12.90
2022-08-07T22:47:17.992Z,15.32
2022-08-07T22:50:20.425Z,13.23
2022-08-07T22:53:18.759Z,10.10
2022-08-07T22:56:09.468Z,12.85
2022-08-07T22:59:13.574Z,11.33
2022-08-07T23:01:59.187Z,10.45
2022-08-07T23:06:09.991Z,11.52
2022-08-07T23:08:00.807Z,9.95
2022-08-07T23:10:42.371Z,11.85
2022-08-07T23:13:29.555Z,12.33
2022-08-07T23:16:44.570Z,10.68
2022-08-07T23:20:04.815Z,10.55
2022-08-07T23:23:10.216Z,11.57
2022-08-07T23:25:42.147Z,11.90
2022-08-07T23:28:36.666Z,11.60
2022-08-07T23:32:49.463Z,11.13
2022-08-07T23:34:39.713Z,9.15
2022-08-07T23:38:01.494Z,11.55
2022-08-07T23:41:02.744Z,10.68
2022-08-07T23:43:51.307Z,12.37
2022-08-07T23:46:51.867Z,12.85
2022-08-07T23:49:51.193Z,11.60
2022-08-07T23:53:00.349Z,12.43
2022-08-07T23:55:52.548Z,12.88
2022-08-07T23:59:10.444Z,14.57
